sensor_id;sensor_type;location;lat;lon;timestamp;pressure;altitude;pressure_sealevel;temperature;humidity
15750;BME280;7976;52.526;13.326;2022-12-29T00:00:17;100211.38;;;9.09;87.75
15750;BME280;7976;52.526;13.326;2022-12-29T00:02:44;100204.31;;;9.11;88.02
15750;BME280;7976;52.526;13.326;2022-12-29T00:05:11;100199.00;;;9.14;87.70
15750;BME280;7976;52.526;13.326;2022-12-29T00:07:39;100195.47;;;9.15;87.59
15750;BME280;7976;52.526;13.326;2022-12-29T00:10:07;100199.00;;;9.14;87.46
15750;BME280;7976;52.526;13.326;2022-12-29T00:12:35;100186.84;;;9.13;87.80
15750;BME280;7976;52.526;13.326;2022-12-29T00:15:19;100186.84;;;9.13;87.43
15750;BME280;7976;52.526;13.326;2022-12-29T00:18:06;100190.25;;;9.15;87.28
15750;BME280;7976;52.526;13.326;2022-12-29T00:20:34;100198.88;;;9.17;87.35
15750;BME280;7976;52.526;13.326;2022-12-29T00:23:20;100184.03;;;9.18;87.60
15750;BME280;7976;52.526;13.326;2022-12-29T00:26:13;100182.28;;;9.18;87.08
15750;BME280;7976;52.526;13.326;2022-12-29T00:28:58;100190.06;;;9.20;87.12
15750;BME280;7976;52.526;13.326;2022-12-29T00:31:42;100176.88;;;9.23;86.94
15750;BME280;7976;52.526;13.326;2022-12-29T00:34:27;100162.88;;;9.25;86.95
15750;BME280;7976;52.526;13.326;2022-12-29T00:37:13;100176.72;;;9.27;86.79
15750;BME280;7976;52.526;13.326;2022-12-29T00:39:41;100165.34;;;9.28;87.04
15750;BME280;7976;52.526;13.326;2022-12-29T00:42:25;100169.78;;;9.26;86.34
15750;BME280;7976;52.526;13.326;2022-12-29T00:45:10;100168.16;;;9.24;86.81
15750;BME280;7976;52.526;13.326;2022-12-29T00:47:39;100169.97;;;9.22;86.54
15750;BME280;7976;52.526;13.326;2022-12-29T00:50:08;100170.03;;;9.20;86.92
15750;BME280;7976;52.526;13.326;2022-12-29T00:52:34;100164.88;;;9.19;86.71
15750;BME280;7976;52.526;13.326;2022-12-29T00:55:05;100157.91;;;9.19;86.80
15750;BME280;7976;52.526;13.326;2022-12-29T00:57:32;100161.22;;;9.23;86.92
15750;BME280;7976;52.526;13.326;2022-12-29T00:59:59;100159.59;;;9.20;86.85
15750;BME280;7976;52.526;13.326;2022-12-29T01:02:29;100162.19;;;9.20;87.02
15750;BME280;7976;52.526;13.326;2022-12-29T01:04:56;100169.09;;;9.21;86.98
15750;BME280;7976;52.526;13.326;2022-12-29T01:07:23;100151.91;;;9.17;86.75
15750;BME280;7976;52.526;13.326;2022-12-29T01:09:53;100158.06;;;9.15;87.07
15750;BME280;7976;52.526;13.326;2022-12-29T01:12:40;100150.31;;;9.13;87.15
15750;BME280;7976;52.526;13.326;2022-12-29T01:15:12;100160.75;;;9.13;87.30
15750;BME280;7976;52.526;13.326;2022-12-29T01:17:41;100159.72;;;9.17;87.19
15750;BME280;7976;52.526;13.326;2022-12-29T01:20:09;100154.44;;;9.19;87.26
15750;BME280;7976;52.526;13.326;2022-12-29T01:22:37;100150.06;;;9.19;86.99
15750;BME280;7976;52.526;13.326;2022-12-29T01:25:05;100150.91;;;9.20;87.20
15750;BME280;7976;52.526;13.326;2022-12-29T01:27:32;100158.72;;;9.20;86.99
15750;BME280;7976;52.526;13.326;2022-12-29T01:30:01;100150.09;;;9.18;86.72
15750;BME280;7976;52.526;13.326;2022-12-29T01:32:28;100152.63;;;9.21;86.63
15750;BME280;7976;52.526;13.326;2022-12-29T01:34:55;100147.41;;;9.21;86.92
15750;BME280;7976;52.526;13.326;2022-12-29T01:37:22;100144.88;;;9.18;86.82
15750;BME280;7976;52.526;13.326;2022-12-29T01:39:52;100144.84;;;9.19;87.07
15750;BME280;7976;52.526;13.326;2022-12-29T01:42:24;100155.28;;;9.19;86.90
15750;BME280;7976;52.526;13.326;2022-12-29T01:44:56;100156.19;;;9.18;86.82
15750;BME280;7976;52.526;13.326;2022-12-29T01:47:33;100153.72;;;9.15;87.46
15750;BME280;7976;52.526;13.326;2022-12-29T01:50:07;100155.53;;;9.13;87.40
15750;BME280;7976;52.526;13.326;2022-12-29T01:52:40;100152.91;;;9.13;87.59
15750;BME280;7976;52.526;13.326;2022-12-29T01:55:09;100143.34;;;9.14;87.60
15750;BME280;7976;52.526;13.326;2022-12-29T01:57:40;100136.38;;;9.14;87.78
15750;BME280;7976;52.526;13.326;2022-12-29T02:00:12;100131.25;;;9.11;87.65
15750;BME280;7976;52.526;13.326;2022-12-29T02:02:44;100124.22;;;9.13;88.06
15750;BME280;7976;52.526;13.326;2022-12-29T02:05:23;100123.41;;;9.11;88.31
15750;BME280;7976;52.526;13.326;2022-12-29T02:07:52;100125.97;;;9.13;88.30
15750;BME280;7976;52.526;13.326;2022-12-29T02:10:22;100125.97;;;9.13;88.46
15750;BME280;7976;52.526;13.326;2022-12-29T02:12:51;100112.97;;;9.11;88.57
15750;BME280;7976;52.526;13.326;2022-12-29T02:15:34;100110.38;;;9.11;88.90
15750;BME280;7976;52.526;13.326;2022-12-29T02:18:25;100106.13;;;9.09;88.95
15750;BME280;7976;52.526;13.326;2022-12-29T02:21:53;100097.53;;;9.07;89.37
15750;BME280;7976;52.526;13.326;2022-12-29T02:28:46;100090.03;;;8.99;89.63
15750;BME280;7976;52.526;13.326;2022-12-29T02:31:34;100092.50;;;9.02;89.44
15750;BME280;7976;52.526;13.326;2022-12-29T02:34:18;100099.34;;;9.05;89.41
15750;BME280;7976;52.526;13.326;2022-12-29T02:36:59;100094.84;;;9.08;89.26
15750;BME280;7976;52.526;13.326;2022-12-29T02:39:40;100085.97;;;9.12;89.21
15750;BME280;7976;52.526;13.326;2022-12-29T02:42:21;100091.13;;;9.14;89.03
15750;BME280;7976;52.526;13.326;2022-12-29T02:44:55;100085.06;;;9.13;88.85
15750;BME280;7976;52.526;13.326;2022-12-29T02:47:45;100077.22;;;9.13;88.96
15750;BME280;7976;52.526;13.326;2022-12-29T02:50:19;100085.78;;;9.17;88.65
15750;BME280;7976;52.526;13.326;2022-12-29T02:52:57;100072.53;;;9.21;88.51
15750;BME280;7976;52.526;13.326;2022-12-29T02:55:26;100075.03;;;9.24;88.25
15750;BME280;7976;52.526;13.326;2022-12-29T02:58:18;100078.34;;;9.28;87.79
15750;BME280;7976;52.526;13.326;2022-12-29T03:01:06;100078.97;;;9.33;87.94
15750;BME280;7976;52.526;13.326;2022-12-29T03:03:52;100065.03;;;9.34;87.48
15750;BME280;7976;52.526;13.326;2022-12-29T03:06:34;100062.22;;;9.38;87.09
15750;BME280;7976;52.526;13.326;2022-12-29T03:09:16;100056.84;;;9.41;86.73
15750;BME280;7976;52.526;13.326;2022-12-29T03:11:58;100050.66;;;9.44;86.46
15750;BME280;7976;52.526;13.326;2022-12-29T03:14:57;100047.78;;;9.50;86.26
15750;BME280;7976;52.526;13.326;2022-12-29T03:17:53;100046.66;;;9.55;86.00
15750;BME280;7976;52.526;13.326;2022-12-29T03:20:32;100040.41;;;9.59;85.47
15750;BME280;7976;52.526;13.326;2022-12-29T03:23:05;100048.88;;;9.64;85.45
15750;BME280;7976;52.526;13.326;2022-12-29T03:25:40;100046.91;;;9.69;84.90
15750;BME280;7976;52.526;13.326;2022-12-29T03:28:17;100041.63;;;9.71;84.76
15750;BME280;7976;52.526;13.326;2022-12-29T03:30:47;100038.94;;;9.72;84.65
15750;BME280;7976;52.526;13.326;2022-12-29T03:33:23;100035.25;;;9.76;84.28
15750;BME280;7976;52.526;13.326;2022-12-29T03:35:58;100043.78;;;9.80;83.99
15750;BME280;7976;52.526;13.326;2022-12-29T03:38:34;100042.81;;;9.82;83.96
15750;BME280;7976;52.526;13.326;2022-12-29T03:41:07;100041.00;;;9.84;83.94
15750;BME280;7976;52.526;13.326;2022-12-29T03:43:36;100038.22;;;9.87;83.59
15750;BME280;7976;52.526;13.326;2022-12-29T03:46:03;100038.09;;;9.90;83.02
15750;BME280;7976;52.526;13.326;2022-12-29T03:48:29;100040.69;;;9.90;83.04
15750;BME280;7976;52.526;13.326;2022-12-29T03:50:59;100040.56;;;9.93;82.62
15750;BME280;7976;52.526;13.326;2022-12-29T03:53:26;100041.34;;;9.95;82.48
15750;BME280;7976;52.526;13.326;2022-12-29T03:55:53;100044.72;;;9.97;82.72
15750;BME280;7976;52.526;13.326;2022-12-29T03:58:21;100046.34;;;10.00;82.35
15750;BME280;7976;52.526;13.326;2022-12-29T04:01:09;100042.91;;;9.99;82.41
15750;BME280;7976;52.526;13.326;2022-12-29T04:03:37;100041.03;;;10.01;82.48
15750;BME280;7976;52.526;13.326;2022-12-29T04:06:06;100041.75;;;10.05;82.37
15750;BME280;7976;52.526;13.326;2022-12-29T04:08:49;100028.56;;;10.08;82.24
15750;BME280;7976;52.526;13.326;2022-12-29T04:11:16;100033.69;;;10.11;81.99
15750;BME280;7976;52.526;13.326;2022-12-29T04:13:43;100041.38;;;10.14;81.96
15750;BME280;7976;52.526;13.326;2022-12-29T04:16:13;100029.00;;;10.18;81.93
15750;BME280;7976;52.526;13.326;2022-12-29T04:18:41;100030.59;;;10.20;81.85
15750;BME280;7976;52.526;13.326;2022-12-29T04:21:09;100033.06;;;10.23;81.70
15750;BME280;7976;52.526;13.326;2022-12-29T04:23:39;100036.53;;;10.24;81.39
15750;BME280;7976;52.526;13.326;2022-12-29T04:26:08;100049.47;;;10.27;81.20
15750;BME280;7976;52.526;13.326;2022-12-29T04:28:45;100047.56;;;10.30;81.16
15750;BME280;7976;52.526;13.326;2022-12-29T04:31:35;100024.03;;;10.30;81.22
15750;BME280;7976;52.526;13.326;2022-12-29T04:34:02;100033.66;;;10.30;81.54
15750;BME280;7976;52.526;13.326;2022-12-29T04:36:31;100017.97;;;10.30;81.45
15750;BME280;7976;52.526;13.326;2022-12-29T04:38:58;100012.75;;;10.30;81.08
15750;BME280;7976;52.526;13.326;2022-12-29T04:41:26;100023.94;;;10.32;81.32
15750;BME280;7976;52.526;13.326;2022-12-29T04:43:53;100019.66;;;10.31;80.99
15750;BME280;7976;52.526;13.326;2022-12-29T04:46:40;100015.34;;;10.30;81.02
15750;BME280;7976;52.526;13.326;2022-12-29T04:49:10;100013.78;;;10.26;81.11
15750;BME280;7976;52.526;13.326;2022-12-29T04:51:49;100012.16;;;10.23;81.19
15750;BME280;7976;52.526;13.326;2022-12-29T04:54:17;100001.03;;;10.20;81.42
15750;BME280;7976;52.526;13.326;2022-12-29T04:56:49;99997.47;;;10.21;81.17
15750;BME280;7976;52.526;13.326;2022-12-29T04:59:17;99999.16;;;10.22;81.36
15750;BME280;7976;52.526;13.326;2022-12-29T05:01:47;100003.50;;;10.23;81.19
15750;BME280;7976;52.526;13.326;2022-12-29T05:04:14;100009.50;;;10.25;81.34
15750;BME280;7976;52.526;13.326;2022-12-29T05:06:42;100012.03;;;10.26;80.98
15750;BME280;7976;52.526;13.326;2022-12-29T05:09:10;99998.03;;;10.27;81.26
15750;BME280;7976;52.526;13.326;2022-12-29T05:11:38;100015.34;;;10.30;81.16
15750;BME280;7976;52.526;13.326;2022-12-29T05:14:05;100002.13;;;10.33;81.18
15750;BME280;7976;52.526;13.326;2022-12-29T05:16:32;99996.03;;;10.32;81.29
15750;BME280;7976;52.526;13.326;2022-12-29T05:18:59;100003.81;;;10.34;81.03
15750;BME280;7976;52.526;13.326;2022-12-29T05:21:26;99984.59;;;10.35;81.24
15750;BME280;7976;52.526;13.326;2022-12-29T05:23:54;99995.06;;;10.35;81.22
15750;BME280;7976;52.526;13.326;2022-12-29T05:26:22;99989.84;;;10.35;81.36
15750;BME280;7976;52.526;13.326;2022-12-29T05:29:05;99983.66;;;10.36;81.32
15750;BME280;7976;52.526;13.326;2022-12-29T05:31:32;99981.06;;;10.36;81.31
15750;BME280;7976;52.526;13.326;2022-12-29T05:34:01;99985.34;;;10.37;81.35
15750;BME280;7976;52.526;13.326;2022-12-29T05:36:28;99986.19;;;10.37;81.36
15750;BME280;7976;52.526;13.326;2022-12-29T05:38:58;99975.59;;;10.40;81.40
15750;BME280;7976;52.526;13.326;2022-12-29T05:41:27;99966.75;;;10.43;81.40
15750;BME280;7976;52.526;13.326;2022-12-29T05:44:20;99979.69;;;10.46;81.36
15750;BME280;7976;52.526;13.326;2022-12-29T05:47:04;99980.31;;;10.51;81.42
15750;BME280;7976;52.526;13.326;2022-12-29T05:49:54;99972.38;;;10.52;81.05
15750;BME280;7976;52.526;13.326;2022-12-29T05:52:33;99961.75;;;10.55;81.37
15750;BME280;7976;52.526;13.326;2022-12-29T05:55:00;99976.47;;;10.58;81.20
15750;BME280;7976;52.526;13.326;2022-12-29T05:57:31;99971.06;;;10.61;81.09
15750;BME280;7976;52.526;13.326;2022-12-29T06:00:11;99977.09;;;10.63;81.58
15750;BME280;7976;52.526;13.326;2022-12-29T06:02:41;99963.06;;;10.64;81.47
15750;BME280;7976;52.526;13.326;2022-12-29T06:05:09;99965.53;;;10.67;81.40
15750;BME280;7976;52.526;13.326;2022-12-29T06:07:37;99954.94;;;10.70;81.38
15750;BME280;7976;52.526;13.326;2022-12-29T06:10:05;99951.38;;;10.71;81.48
15750;BME280;7976;52.526;13.326;2022-12-29T06:12:42;99957.31;;;10.74;81.32
15750;BME280;7976;52.526;13.326;2022-12-29T06:15:10;99963.22;;;10.78;81.33
15750;BME280;7976;52.526;13.326;2022-12-29T06:17:39;99953.53;;;10.80;81.19
15750;BME280;7976;52.526;13.326;2022-12-29T06:20:08;99958.69;;;10.81;81.09
15750;BME280;7976;52.526;13.326;2022-12-29T06:22:35;99962.00;;;10.85;81.06
15750;BME280;7976;52.526;13.326;2022-12-29T06:25:03;99964.47;;;10.88;80.88
15750;BME280;7976;52.526;13.326;2022-12-29T06:27:32;99959.13;;;10.89;80.72
15750;BME280;7976;52.526;13.326;2022-12-29T06:30:01;99958.19;;;10.90;80.97
15750;BME280;7976;52.526;13.326;2022-12-29T06:32:28;99962.44;;;10.93;80.87
15750;BME280;7976;52.526;13.326;2022-12-29T06:35:00;99960.59;;;10.95;80.83
15750;BME280;7976;52.526;13.326;2022-12-29T06:37:27;99969.28;;;10.95;80.74
15750;BME280;7976;52.526;13.326;2022-12-29T06:39:55;99968.28;;;10.98;80.58
15750;BME280;7976;52.526;13.326;2022-12-29T06:42:25;99976.00;;;11.01;80.86
15750;BME280;7976;52.526;13.326;2022-12-29T06:45:20;99970.75;;;11.01;80.63
15750;BME280;7976;52.526;13.326;2022-12-29T06:47:47;99970.59;;;11.04;80.68
15750;BME280;7976;52.526;13.326;2022-12-29T06:50:13;99980.16;;;11.05;80.70
15750;BME280;7976;52.526;13.326;2022-12-29T06:52:41;99973.13;;;11.05;80.46
15750;BME280;7976;52.526;13.326;2022-12-29T06:55:08;99980.91;;;11.07;80.43
15750;BME280;7976;52.526;13.326;2022-12-29T06:57:35;99977.53;;;11.05;80.34
15750;BME280;7976;52.526;13.326;2022-12-29T07:00:03;99988.00;;;11.05;80.45
15750;BME280;7976;52.526;13.326;2022-12-29T07:02:31;99996.84;;;11.02;80.48
15750;BME280;7976;52.526;13.326;2022-12-29T07:04:58;99991.69;;;11.01;80.70
15750;BME280;7976;52.526;13.326;2022-12-29T07:07:25;99976.06;;;10.99;80.45
15750;BME280;7976;52.526;13.326;2022-12-29T07:09:52;99975.28;;;10.97;80.83
15750;BME280;7976;52.526;13.326;2022-12-29T07:12:18;99983.22;;;10.96;80.85
15750;BME280;7976;52.526;13.326;2022-12-29T07:14:45;99997.25;;;10.95;80.72
15750;BME280;7976;52.526;13.326;2022-12-29T07:17:12;99989.41;;;10.95;80.85
15750;BME280;7976;52.526;13.326;2022-12-29T07:19:40;99992.84;;;10.95;80.68
15750;BME280;7976;52.526;13.326;2022-12-29T07:22:08;99989.41;;;10.95;80.99
15750;BME280;7976;52.526;13.326;2022-12-29T07:24:35;99997.25;;;10.95;80.76
15750;BME280;7976;52.526;13.326;2022-12-29T07:27:03;99980.69;;;10.94;80.85
15750;BME280;7976;52.526;13.326;2022-12-29T07:29:30;99988.63;;;10.93;81.01
15750;BME280;7976;52.526;13.326;2022-12-29T07:31:57;99981.69;;;10.92;80.70
15750;BME280;7976;52.526;13.326;2022-12-29T07:34:24;99974.75;;;10.91;80.97
15750;BME280;7976;52.526;13.326;2022-12-29T07:36:52;99977.47;;;10.89;80.84
15750;BME280;7976;52.526;13.326;2022-12-29T07:39:19;99974.94;;;10.88;81.25
15750;BME280;7976;52.526;13.326;2022-12-29T07:41:46;99990.63;;;10.88;81.25
15750;BME280;7976;52.526;13.326;2022-12-29T07:44:17;99970.56;;;10.88;81.30
15750;BME280;7976;52.526;13.326;2022-12-29T07:46:56;99978.31;;;10.90;81.21
15750;BME280;7976;52.526;13.326;2022-12-29T07:49:22;99974.75;;;10.91;81.12
15750;BME280;7976;52.526;13.326;2022-12-29T07:51:52;99972.06;;;10.92;81.09
15750;BME280;7976;52.526;13.326;2022-12-29T07:54:19;99978.06;;;10.94;81.21
15750;BME280;7976;52.526;13.326;2022-12-29T07:56:48;99980.63;;;10.96;81.28
15750;BME280;7976;52.526;13.326;2022-12-29T07:59:15;99991.00;;;10.97;81.05
15750;BME280;7976;52.526;13.326;2022-12-29T08:01:42;99978.69;;;10.99;81.23
15750;BME280;7976;52.526;13.326;2022-12-29T08:04:09;99990.75;;;11.02;81.37
15750;BME280;7976;52.526;13.326;2022-12-29T08:06:36;99982.91;;;11.02;81.10
15750;BME280;7976;52.526;13.326;2022-12-29T08:09:04;99982.84;;;11.03;81.00
15750;BME280;7976;52.526;13.326;2022-12-29T08:11:31;99982.00;;;11.03;81.17
15750;BME280;7976;52.526;13.326;2022-12-29T08:13:58;99981.06;;;11.04;80.95
15750;BME280;7976;52.526;13.326;2022-12-29T08:16:25;99979.22;;;11.06;80.88
15750;BME280;7976;52.526;13.326;2022-12-29T08:18:52;99980.06;;;11.06;81.18
15750;BME280;7976;52.526;13.326;2022-12-29T08:21:19;99980.00;;;11.08;80.88
15750;BME280;7976;52.526;13.326;2022-12-29T08:23:47;99995.63;;;11.09;81.15
15750;BME280;7976;52.526;13.326;2022-12-29T08:26:15;99988.63;;;11.10;81.37
15750;BME280;7976;52.526;13.326;2022-12-29T08:28:42;99980.91;;;11.07;80.99
15750;BME280;7976;52.526;13.326;2022-12-29T08:31:09;99986.28;;;11.04;81.27
15750;BME280;7976;52.526;13.326;2022-12-29T08:33:36;99987.31;;;11.01;81.21
15750;BME280;7976;52.526;13.326;2022-12-29T08:36:06;99975.13;;;11.00;81.13
15750;BME280;7976;52.526;13.326;2022-12-29T08:38:33;99970.91;;;10.98;81.51
15750;BME280;7976;52.526;13.326;2022-12-29T08:41:00;99962.13;;;10.99;81.35
15750;BME280;7976;52.526;13.326;2022-12-29T08:43:30;99978.78;;;10.98;81.50
15750;BME280;7976;52.526;13.326;2022-12-29T08:45:57;99969.19;;;10.97;81.36
15750;BME280;7976;52.526;13.326;2022-12-29T08:48:24;99981.38;;;10.98;81.25
15750;BME280;7976;52.526;13.326;2022-12-29T08:50:52;99974.31;;;11.00;81.36
15750;BME280;7976;52.526;13.326;2022-12-29T08:53:19;99974.91;;;11.05;81.42
15750;BME280;7976;52.526;13.326;2022-12-29T08:55:47;99982.44;;;11.11;81.11
15750;BME280;7976;52.526;13.326;2022-12-29T08:58:20;99976.13;;;11.15;80.92
15750;BME280;7976;52.526;13.326;2022-12-29T09:00:48;99971.50;;;11.20;80.68
15750;BME280;7976;52.526;13.326;2022-12-29T09:03:15;99955.63;;;11.23;80.88
15750;BME280;7976;52.526;13.326;2022-12-29T09:05:42;99965.94;;;11.26;80.65
15750;BME280;7976;52.526;13.326;2022-12-29T09:08:09;99966.63;;;11.29;80.56
15750;BME280;7976;52.526;13.326;2022-12-29T09:10:36;99961.38;;;11.29;80.38
15750;BME280;7976;52.526;13.326;2022-12-29T09:13:02;99961.47;;;11.28;80.38
15750;BME280;7976;52.526;13.326;2022-12-29T09:15:29;99958.00;;;11.27;80.33
15750;BME280;7976;52.526;13.326;2022-12-29T09:17:57;99959.75;;;11.27;80.52
15750;BME280;7976;52.526;13.326;2022-12-29T09:20:24;99956.22;;;11.28;80.39
15750;BME280;7976;52.526;13.326;2022-12-29T09:22:51;99964.84;;;11.30;80.22
15750;BME280;7976;52.526;13.326;2022-12-29T09:25:18;99948.19;;;11.31;80.44
15750;BME280;7976;52.526;13.326;2022-12-29T09:27:45;99958.50;;;11.34;80.42
15750;BME280;7976;52.526;13.326;2022-12-29T09:30:13;99953.09;;;11.37;80.21
15750;BME280;7976;52.526;13.326;2022-12-29T09:32:41;99954.66;;;11.41;80.15
15750;BME280;7976;52.526;13.326;2022-12-29T09:35:10;99949.22;;;11.44;80.21
15750;BME280;7976;52.526;13.326;2022-12-29T09:37:37;99945.72;;;11.45;79.90
15750;BME280;7976;52.526;13.326;2022-12-29T09:40:06;99933.34;;;11.47;79.86
15750;BME280;7976;52.526;13.326;2022-12-29T09:42:41;99940.13;;;11.51;79.79
15750;BME280;7976;52.526;13.326;2022-12-29T09:45:16;99936.50;;;11.54;79.80
15750;BME280;7976;52.526;13.326;2022-12-29T09:47:46;99946.72;;;11.58;79.83
15750;BME280;7976;52.526;13.326;2022-12-29T09:50:22;99935.13;;;11.64;79.92
15750;BME280;7976;52.526;13.326;2022-12-29T09:52:57;99940.94;;;11.69;79.51
15750;BME280;7976;52.526;13.326;2022-12-29T09:55:35;99941.53;;;11.74;79.40
15750;BME280;7976;52.526;13.326;2022-12-29T09:58:12;99942.19;;;11.77;79.26
15750;BME280;7976;52.526;13.326;2022-12-29T10:00:48;99942.88;;;11.81;79.30
15750;BME280;7976;52.526;13.326;2022-12-29T10:03:19;99956.56;;;11.86;79.29
15750;BME280;7976;52.526;13.326;2022-12-29T10:05:56;99962.50;;;11.89;79.35
15750;BME280;7976;52.526;13.326;2022-12-29T10:08:37;99948.47;;;11.90;79.35
15750;BME280;7976;52.526;13.326;2022-12-29T10:11:19;99938.91;;;11.89;79.22
15750;BME280;7976;52.526;13.326;2022-12-29T10:14:10;99952.09;;;11.88;79.27
15750;BME280;7976;52.526;13.326;2022-12-29T10:16:51;99940.84;;;11.86;79.19
15750;BME280;7976;52.526;13.326;2022-12-29T10:19:43;99938.13;;;11.87;79.31
15750;BME280;7976;52.526;13.326;2022-12-29T10:22:35;99938.91;;;11.89;79.39
15750;BME280;7976;52.526;13.326;2022-12-29T10:25:16;99932.56;;;11.93;78.98
15750;BME280;7976;52.526;13.326;2022-12-29T10:27:48;99930.53;;;11.98;79.33
15750;BME280;7976;52.526;13.326;2022-12-29T10:30:16;99937.03;;;12.07;78.92
15750;BME280;7976;52.526;13.326;2022-12-29T10:32:48;99934.56;;;12.19;78.85
15750;BME280;7976;52.526;13.326;2022-12-29T10:35:20;99930.38;;;12.31;78.45
15750;BME280;7976;52.526;13.326;2022-12-29T10:37:55;99938.41;;;12.43;78.54
15750;BME280;7976;52.526;13.326;2022-12-29T10:40:32;99920.06;;;12.57;77.86
15750;BME280;7976;52.526;13.326;2022-12-29T10:43:17;99930.78;;;12.69;77.78
15750;BME280;7976;52.526;13.326;2022-12-29T10:45:47;99926.03;;;12.75;77.16
15750;BME280;7976;52.526;13.326;2022-12-29T10:48:21;99941.31;;;12.83;76.91
15750;BME280;7976;52.526;13.326;2022-12-29T10:50:50;99921.81;;;12.87;77.04
15750;BME280;7976;52.526;13.326;2022-12-29T10:53:24;99924.34;;;12.88;76.65
15750;BME280;7976;52.526;13.326;2022-12-29T10:55:53;99919.94;;;12.89;76.46
15750;BME280;7976;52.526;13.326;2022-12-29T10:58:22;99926.72;;;12.93;76.71
15750;BME280;7976;52.526;13.326;2022-12-29T11:00:53;99911.53;;;12.98;76.36
15750;BME280;7976;52.526;13.326;2022-12-29T11:03:51;99913.97;;;13.01;76.06
15750;BME280;7976;52.526;13.326;2022-12-29T11:06:27;99912.88;;;13.05;75.97
15750;BME280;7976;52.526;13.326;2022-12-29T11:08:59;99923.38;;;13.05;75.96
15750;BME280;7976;52.526;13.326;2022-12-29T11:11:34;99914.66;;;13.04;76.08
15750;BME280;7976;52.526;13.326;2022-12-29T11:14:12;99920.84;;;13.03;75.92
15750;BME280;7976;52.526;13.326;2022-12-29T11:16:39;99926.19;;;13.02;75.84
15750;BME280;7976;52.526;13.326;2022-12-29T11:19:20;99919.22;;;13.01;75.69
15750;BME280;7976;52.526;13.326;2022-12-29T11:21:48;99915.69;;;13.02;76.00
15750;BME280;7976;52.526;13.326;2022-12-29T11:24:23;99914.75;;;13.03;75.64
15750;BME280;7976;52.526;13.326;2022-12-29T11:26:51;99938.47;;;13.01;75.90
15750;BME280;7976;52.526;13.326;2022-12-29T11:29:28;99934.97;;;13.01;75.61
15750;BME280;7976;52.526;13.326;2022-12-29T11:31:58;99932.34;;;13.01;75.67
15750;BME280;7976;52.526;13.326;2022-12-29T11:34:30;99950.94;;;12.98;75.74
15750;BME280;7976;52.526;13.326;2022-12-29T11:37:02;99945.00;;;12.94;75.90
15750;BME280;7976;52.526;13.326;2022-12-29T11:39:37;99937.97;;;12.95;76.23
15750;BME280;7976;52.526;13.326;2022-12-29T11:42:14;99941.53;;;12.94;76.19
15750;BME280;7976;52.526;13.326;2022-12-29T11:44:45;99938.06;;;12.93;76.61
15750;BME280;7976;52.526;13.326;2022-12-29T11:47:26;99956.63;;;12.90;77.27
15750;BME280;7976;52.526;13.326;2022-12-29T11:49:58;99944.69;;;12.85;77.51
15750;BME280;7976;52.526;13.326;2022-12-29T11:52:29;99944.13;;;12.80;77.96
15750;BME280;7976;52.526;13.326;2022-12-29T11:55:02;99945.25;;;12.76;78.20
15750;BME280;7976;52.526;13.326;2022-12-29T11:57:32;99936.63;;;12.74;78.31
15750;BME280;7976;52.526;13.326;2022-12-29T12:00:06;99940.34;;;12.70;78.18
15750;BME280;7976;52.526;13.326;2022-12-29T12:02:48;99946.81;;;12.64;78.46
15750;BME280;7976;52.526;13.326;2022-12-29T12:05:25;99946.69;;;12.51;78.81
15750;BME280;7976;52.526;13.326;2022-12-29T12:08:01;99940.63;;;12.35;79.83
15750;BME280;7976;52.526;13.326;2022-12-29T12:10:45;99945.13;;;12.18;80.87
15750;BME280;7976;52.526;13.326;2022-12-29T12:13:59;99954.91;;;12.00;82.04
15750;BME280;7976;52.526;13.326;2022-12-29T12:16:41;99960.81;;;11.88;82.73
15750;BME280;7976;52.526;13.326;2022-12-29T12:19:20;99965.63;;;11.80;83.42
15750;BME280;7976;52.526;13.326;2022-12-29T12:21:58;99969.53;;;11.73;84.57
15750;BME280;7976;52.526;13.326;2022-12-29T12:24:44;99961.16;;;11.67;85.09
15750;BME280;7976;52.526;13.326;2022-12-29T12:33:22;99943.94;;;11.61;86.44
15750;BME280;7976;52.526;13.326;2022-12-29T12:36:17;99949.03;;;11.64;86.69
15750;BME280;7976;52.526;13.326;2022-12-29T12:38:57;99948.13;;;11.65;87.01
15750;BME280;7976;52.526;13.326;2022-12-29T12:41:45;99949.09;;;11.63;87.00
15750;BME280;7976;52.526;13.326;2022-12-29T12:44:28;99957.03;;;11.61;86.73
15750;BME280;7976;52.526;13.326;2022-12-29T12:47:20;99943.94;;;11.61;86.67
15750;BME280;7976;52.526;13.326;2022-12-29T12:50:27;99937.94;;;11.59;86.29
15750;BME280;7976;52.526;13.326;2022-12-29T12:53:30;99946.91;;;11.55;86.43
15750;BME280;7976;52.526;13.326;2022-12-29T12:56:27;99950.59;;;11.51;86.38
15750;BME280;7976;52.526;13.326;2022-12-29T12:59:06;99956.78;;;11.50;86.14
15750;BME280;7976;52.526;13.326;2022-12-29T13:01:45;99966.50;;;11.48;85.92
15750;BME280;7976;52.526;13.326;2022-12-29T13:04:46;99968.34;;;11.46;85.73
15750;BME280;7976;52.526;13.326;2022-12-29T13:07:31;99951.94;;;11.43;85.93
15750;BME280;7976;52.526;13.326;2022-12-29T13:10:30;99946.78;;;11.41;85.57
15750;BME280;7976;52.526;13.326;2022-12-29T13:13:28;99960.75;;;11.42;85.77
15750;BME280;7976;52.526;13.326;2022-12-29T13:16:06;99957.25;;;11.41;85.66
15750;BME280;7976;52.526;13.326;2022-12-29T13:18:50;99954.66;;;11.41;85.69
15750;BME280;7976;52.526;13.326;2022-12-29T13:21:33;99965.97;;;11.42;85.94
15750;BME280;7976;52.526;13.326;2022-12-29T13:24:15;99969.28;;;11.45;85.83
15750;BME280;7976;52.526;13.326;2022-12-29T13:26:50;99967.56;;;11.44;85.92
15750;BME280;7976;52.526;13.326;2022-12-29T13:29:23;99972.81;;;11.44;86.21
15750;BME280;7976;52.526;13.326;2022-12-29T13:32:10;99966.75;;;11.44;86.21
15750;BME280;7976;52.526;13.326;2022-12-29T13:34:51;99973.75;;;11.43;86.29
15750;BME280;7976;52.526;13.326;2022-12-29T13:37:26;99965.91;;;11.43;86.34
15750;BME280;7976;52.526;13.326;2022-12-29T13:40:01;99973.75;;;11.43;86.71
15750;BME280;7976;52.526;13.326;2022-12-29T13:42:30;99960.66;;;11.43;86.90
15750;BME280;7976;52.526;13.326;2022-12-29T13:45:04;99973.59;;;11.46;86.60